sensor_id;sensor_type;location;lat;lon;timestamp;P1;durP1;ratioP1;P2;durP2;ratioP2
2618;SDS011;1319;52.346;13.096;2023-02-02T00:01:45;14.33;;;3.13;;
2618;SDS011;1319;52.346;13.096;2023-02-02T00:04:17;17.83;;;2.50;;
2618;SDS011;1319;52.346;13.096;2023-02-02T00:06:43;22.63;;;2.90;;
2618;SDS011;1319;52.346;13.096;2023-02-02T00:09:09;15.97;;;2.30;;
2618;SDS011;1319;52.346;13.096;2023-02-02T00:11:35;21.27;;;2.80;;
2618;SDS011;1319;52.346;13.096;2023-02-02T00:14:00;19.77;;;3.23;;
2618;SDS011;1319;52.346;13.096;2023-02-02T00:18:51;19.03;;;2.93;;
2618;SDS011;1319;52.346;13.096;2023-02-02T00:21:17;11.70;;;2.27;;
2618;SDS011;1319;52.346;13.096;2023-02-02T00:23:42;17.50;;;2.73;;
2618;SDS011;1319;52.346;13.096;2023-02-02T00:26:07;11.73;;;2.50;;
2618;SDS011;1319;52.346;13.096;2023-02-02T00:28:33;10.23;;;2.70;;
2618;SDS011;1319;52.346;13.096;2023-02-02T00:30:58;11.47;;;2.50;;
2618;SDS011;1319;52.346;13.096;2023-02-02T00:33:23;10.27;;;2.20;;
2618;SDS011;1319;52.346;13.096;2023-02-02T00:35:50;20.13;;;2.83;;
2618;SDS011;1319;52.346;13.096;2023-02-02T00:38:15;23.80;;;2.90;;
2618;SDS011;1319;52.346;13.096;2023-02-02T00:40:41;14.00;;;3.10;;
2618;SDS011;1319;52.346;13.096;2023-02-02T00:43:06;11.93;;;2.37;;
2618;SDS011;1319;52.346;13.096;2023-02-02T00:45:31;18.40;;;2.77;;
2618;SDS011;1319;52.346;13.096;2023-02-02T00:47:56;14.27;;;2.67;;
2618;SDS011;1319;52.346;13.096;2023-02-02T00:50:22;15.83;;;2.40;;
2618;SDS011;1319;52.346;13.096;2023-02-02T00:52:47;12.67;;;2.77;;
2618;SDS011;1319;52.346;13.096;2023-02-02T00:55:13;15.70;;;2.90;;
2618;SDS011;1319;52.346;13.096;2023-02-02T00:57:38;13.47;;;2.40;;
2618;SDS011;1319;52.346;13.096;2023-02-02T01:00:05;18.83;;;2.70;;
2618;SDS011;1319;52.346;13.096;2023-02-02T01:02:31;15.33;;;2.60;;
2618;SDS011;1319;52.346;13.096;2023-02-02T01:04:56;15.83;;;2.40;;
2618;SDS011;1319;52.346;13.096;2023-02-02T01:07:21;15.20;;;3.13;;
2618;SDS011;1319;52.346;13.096;2023-02-02T01:09:47;9.17;;;2.20;;
2618;SDS011;1319;52.346;13.096;2023-02-02T01:12:12;14.87;;;2.50;;
2618;SDS011;1319;52.346;13.096;2023-02-02T01:14:37;19.30;;;3.50;;
2618;SDS011;1319;52.346;13.096;2023-02-02T01:17:02;15.00;;;2.73;;
2618;SDS011;1319;52.346;13.096;2023-02-02T01:19:29;13.77;;;2.70;;
2618;SDS011;1319;52.346;13.096;2023-02-02T01:21:54;12.73;;;2.53;;
2618;SDS011;1319;52.346;13.096;2023-02-02T01:24:19;15.43;;;2.27;;
2618;SDS011;1319;52.346;13.096;2023-02-02T01:26:45;19.87;;;3.50;;
2618;SDS011;1319;52.346;13.096;2023-02-02T01:29:10;17.50;;;2.50;;
2618;SDS011;1319;52.346;13.096;2023-02-02T01:31:36;17.47;;;2.67;;
2618;SDS011;1319;52.346;13.096;2023-02-02T01:34:01;11.93;;;2.37;;
2618;SDS011;1319;52.346;13.096;2023-02-02T01:36:26;16.80;;;2.07;;
2618;SDS011;1319;52.346;13.096;2023-02-02T01:38:51;15.30;;;2.30;;
2618;SDS011;1319;52.346;13.096;2023-02-02T01:41:18;11.93;;;2.17;;
2618;SDS011;1319;52.346;13.096;2023-02-02T01:46:16;15.50;;;2.43;;
2618;SDS011;1319;52.346;13.096;2023-02-02T01:48:42;12.20;;;2.40;;
2618;SDS011;1319;52.346;13.096;2023-02-02T01:51:10;14.37;;;2.80;;
2618;SDS011;1319;52.346;13.096;2023-02-02T01:53:36;21.33;;;2.70;;
2618;SDS011;1319;52.346;13.096;2023-02-02T01:56:02;12.87;;;2.47;;
2618;SDS011;1319;52.346;13.096;2023-02-02T01:58:32;13.73;;;2.53;;
2618;SDS011;1319;52.346;13.096;2023-02-02T02:00:58;14.37;;;2.30;;
2618;SDS011;1319;52.346;13.096;2023-02-02T02:03:24;19.53;;;2.90;;
2618;SDS011;1319;52.346;13.096;2023-02-02T02:05:50;17.03;;;2.50;;
2618;SDS011;1319;52.346;13.096;2023-02-02T02:08:21;16.00;;;2.83;;
2618;SDS011;1319;52.346;13.096;2023-02-02T02:10:47;16.97;;;2.87;;
2618;SDS011;1319;52.346;13.096;2023-02-02T02:13:13;14.50;;;2.93;;
2618;SDS011;1319;52.346;13.096;2023-02-02T02:15:47;18.33;;;2.53;;
2618;SDS011;1319;52.346;13.096;2023-02-02T02:21:22;7.33;;;2.17;;
2618;SDS011;1319;52.346;13.096;2023-02-02T02:27:44;13.93;;;2.43;;
2618;SDS011;1319;52.346;13.096;2023-02-02T02:32:51;14.37;;;2.63;;
2618;SDS011;1319;52.346;13.096;2023-02-02T02:40:40;12.63;;;3.27;;
2618;SDS011;1319;52.346;13.096;2023-02-02T02:43:17;16.77;;;2.30;;
2618;SDS011;1319;52.346;13.096;2023-02-02T02:45:44;11.33;;;1.97;;
2618;SDS011;1319;52.346;13.096;2023-02-02T02:48:10;12.60;;;2.30;;
2618;SDS011;1319;52.346;13.096;2023-02-02T02:50:36;14.50;;;2.33;;
2618;SDS011;1319;52.346;13.096;2023-02-02T02:53:05;19.37;;;3.23;;
2618;SDS011;1319;52.346;13.096;2023-02-02T02:58:17;14.10;;;2.47;;
2618;SDS011;1319;52.346;13.096;2023-02-02T03:00:52;15.63;;;2.53;;
2618;SDS011;1319;52.346;13.096;2023-02-02T03:08:33;17.37;;;2.10;;
2618;SDS011;1319;52.346;13.096;2023-02-02T03:11:00;14.20;;;2.40;;
2618;SDS011;1319;52.346;13.096;2023-02-02T03:13:29;9.27;;;1.83;;
2618;SDS011;1319;52.346;13.096;2023-02-02T03:15:55;12.40;;;2.00;;
2618;SDS011;1319;52.346;13.096;2023-02-02T03:18:21;17.67;;;2.30;;
2618;SDS011;1319;52.346;13.096;2023-02-02T03:20:46;8.50;;;1.73;;
2618;SDS011;1319;52.346;13.096;2023-02-02T03:23:12;11.67;;;1.80;;
2618;SDS011;1319;52.346;13.096;2023-02-02T03:25:37;13.30;;;2.17;;
2618;SDS011;1319;52.346;13.096;2023-02-02T03:28:03;11.80;;;1.87;;
2618;SDS011;1319;52.346;13.096;2023-02-02T03:30:28;6.97;;;2.00;;
2618;SDS011;1319;52.346;13.096;2023-02-02T03:32:53;14.20;;;1.77;;
2618;SDS011;1319;52.346;13.096;2023-02-02T03:35:19;12.00;;;2.20;;
2618;SDS011;1319;52.346;13.096;2023-02-02T03:37:47;10.47;;;1.83;;
2618;SDS011;1319;52.346;13.096;2023-02-02T03:40:12;9.63;;;2.13;;
2618;SDS011;1319;52.346;13.096;2023-02-02T03:42:38;10.80;;;2.00;;
2618;SDS011;1319;52.346;13.096;2023-02-02T03:45:03;10.30;;;2.10;;
2618;SDS011;1319;52.346;13.096;2023-02-02T03:47:28;9.97;;;2.00;;
2618;SDS011;1319;52.346;13.096;2023-02-02T03:49:54;8.07;;;1.70;;
2618;SDS011;1319;52.346;13.096;2023-02-02T03:52:19;12.53;;;1.80;;
2618;SDS011;1319;52.346;13.096;2023-02-02T03:54:44;7.00;;;2.00;;
2618;SDS011;1319;52.346;13.096;2023-02-02T03:57:09;9.43;;;2.20;;
2618;SDS011;1319;52.346;13.096;2023-02-02T03:59:35;8.97;;;2.20;;
2618;SDS011;1319;52.346;13.096;2023-02-02T04:02:00;12.93;;;2.23;;
2618;SDS011;1319;52.346;13.096;2023-02-02T04:04:25;9.20;;;2.03;;
2618;SDS011;1319;52.346;13.096;2023-02-02T04:06:50;8.40;;;1.60;;
2618;SDS011;1319;52.346;13.096;2023-02-02T04:09:16;13.30;;;1.70;;
2618;SDS011;1319;52.346;13.096;2023-02-02T04:11:41;8.83;;;1.97;;
2618;SDS011;1319;52.346;13.096;2023-02-02T04:14:06;10.20;;;1.70;;
2618;SDS011;1319;52.346;13.096;2023-02-02T04:16:31;10.07;;;1.80;;
2618;SDS011;1319;52.346;13.096;2023-02-02T04:18:59;6.37;;;1.57;;
2618;SDS011;1319;52.346;13.096;2023-02-02T04:21:25;9.33;;;1.80;;
2618;SDS011;1319;52.346;13.096;2023-02-02T04:23:50;7.73;;;1.53;;
2618;SDS011;1319;52.346;13.096;2023-02-02T04:26:15;7.20;;;1.63;;
2618;SDS011;1319;52.346;13.096;2023-02-02T04:28:40;6.30;;;1.60;;
2618;SDS011;1319;52.346;13.096;2023-02-02T04:31:05;10.63;;;1.90;;
2618;SDS011;1319;52.346;13.096;2023-02-02T04:33:32;4.90;;;1.53;;
2618;SDS011;1319;52.346;13.096;2023-02-02T04:35:57;6.50;;;1.60;;
2618;SDS011;1319;52.346;13.096;2023-02-02T04:38:23;8.63;;;1.23;;
2618;SDS011;1319;52.346;13.096;2023-02-02T04:40:48;5.77;;;1.30;;
2618;SDS011;1319;52.346;13.096;2023-02-02T04:43:13;5.20;;;1.60;;
2618;SDS011;1319;52.346;13.096;2023-02-02T04:45:39;6.30;;;1.67;;
2618;SDS011;1319;52.346;13.096;2023-02-02T04:48:04;4.13;;;1.17;;
2618;SDS011;1319;52.346;13.096;2023-02-02T04:50:29;5.97;;;1.20;;
2618;SDS011;1319;52.346;13.096;2023-02-02T04:52:55;6.63;;;1.30;;
2618;SDS011;1319;52.346;13.096;2023-02-02T04:55:20;8.50;;;1.60;;
2618;SDS011;1319;52.346;13.096;2023-02-02T04:57:45;10.07;;;1.80;;
2618;SDS011;1319;52.346;13.096;2023-02-02T05:00:11;3.93;;;1.60;;
2618;SDS011;1319;52.346;13.096;2023-02-02T05:02:37;7.20;;;1.60;;
2618;SDS011;1319;52.346;13.096;2023-02-02T05:05:03;7.50;;;1.90;;
2618;SDS011;1319;52.346;13.096;2023-02-02T05:07:28;9.80;;;1.60;;
2618;SDS011;1319;52.346;13.096;2023-02-02T05:09:54;9.33;;;1.33;;
2618;SDS011;1319;52.346;13.096;2023-02-02T05:12:19;7.73;;;1.53;;
2618;SDS011;1319;52.346;13.096;2023-02-02T05:14:44;11.33;;;2.00;;
2618;SDS011;1319;52.346;13.096;2023-02-02T05:17:09;10.33;;;1.60;;
2618;SDS011;1319;52.346;13.096;2023-02-02T05:19:35;4.97;;;1.33;;
2618;SDS011;1319;52.346;13.096;2023-02-02T05:22:00;12.37;;;1.90;;
2618;SDS011;1319;52.346;13.096;2023-02-02T05:24:25;6.57;;;1.60;;
2618;SDS011;1319;52.346;13.096;2023-02-02T05:26:51;9.67;;;1.90;;
2618;SDS011;1319;52.346;13.096;2023-02-02T05:29:18;8.73;;;1.53;;
2618;SDS011;1319;52.346;13.096;2023-02-02T05:31:44;11.83;;;1.57;;
2618;SDS011;1319;52.346;13.096;2023-02-02T05:34:09;4.17;;;1.30;;
2618;SDS011;1319;52.346;13.096;2023-02-02T05:36:35;7.63;;;1.53;;
2618;SDS011;1319;52.346;13.096;2023-02-02T05:39:00;6.57;;;1.73;;
2618;SDS011;1319;52.346;13.096;2023-02-02T05:41:25;7.67;;;1.53;;
2618;SDS011;1319;52.346;13.096;2023-02-02T05:43:51;8.67;;;2.00;;
2618;SDS011;1319;52.346;13.096;2023-02-02T05:46:16;9.53;;;1.73;;
2618;SDS011;1319;52.346;13.096;2023-02-02T05:48:41;9.43;;;1.97;;
2618;SDS011;1319;52.346;13.096;2023-02-02T05:51:20;9.73;;;1.87;;
2618;SDS011;1319;52.346;13.096;2023-02-02T05:53:47;7.33;;;1.73;;
2618;SDS011;1319;52.346;13.096;2023-02-02T05:56:13;13.73;;;2.00;;
2618;SDS011;1319;52.346;13.096;2023-02-02T05:58:39;9.07;;;2.03;;
2618;SDS011;1319;52.346;13.096;2023-02-02T06:01:04;7.77;;;1.60;;
2618;SDS011;1319;52.346;13.096;2023-02-02T06:03:30;9.10;;;1.70;;
2618;SDS011;1319;52.346;13.096;2023-02-02T06:05:55;8.20;;;1.57;;
2618;SDS011;1319;52.346;13.096;2023-02-02T06:08:20;8.87;;;2.00;;
2618;SDS011;1319;52.346;13.096;2023-02-02T06:10:45;7.03;;;1.30;;
2618;SDS011;1319;52.346;13.096;2023-02-02T06:13:11;2.80;;;1.03;;
2618;SDS011;1319;52.346;13.096;2023-02-02T06:15:36;5.73;;;1.27;;
2618;SDS011;1319;52.346;13.096;2023-02-02T06:18:01;5.33;;;1.50;;
2618;SDS011;1319;52.346;13.096;2023-02-02T06:20:27;19.30;;;1.90;;
2618;SDS011;1319;52.346;13.096;2023-02-02T06:22:52;11.90;;;1.80;;
2618;SDS011;1319;52.346;13.096;2023-02-02T06:25:17;10.03;;;1.70;;
2618;SDS011;1319;52.346;13.096;2023-02-02T06:27:43;12.97;;;1.97;;
2618;SDS011;1319;52.346;13.096;2023-02-02T06:30:11;11.53;;;1.93;;
2618;SDS011;1319;52.346;13.096;2023-02-02T06:32:37;10.53;;;1.80;;
2618;SDS011;1319;52.346;13.096;2023-02-02T06:35:03;10.83;;;2.00;;
2618;SDS011;1319;52.346;13.096;2023-02-02T06:37:28;7.90;;;1.70;;
2618;SDS011;1319;52.346;13.096;2023-02-02T06:39:54;13.10;;;2.27;;
2618;SDS011;1319;52.346;13.096;2023-02-02T06:42:19;10.10;;;1.90;;
2618;SDS011;1319;52.346;13.096;2023-02-02T06:44:44;13.17;;;2.20;;
2618;SDS011;1319;52.346;13.096;2023-02-02T06:47:09;17.60;;;2.43;;
2618;SDS011;1319;52.346;13.096;2023-02-02T06:49:34;8.47;;;1.93;;
2618;SDS011;1319;52.346;13.096;2023-02-02T06:51:59;9.80;;;1.90;;
2618;SDS011;1319;52.346;13.096;2023-02-02T06:54:25;10.80;;;1.80;;
2618;SDS011;1319;52.346;13.096;2023-02-02T06:56:51;14.40;;;2.20;;
2618;SDS011;1319;52.346;13.096;2023-02-02T06:59:16;14.10;;;2.10;;
2618;SDS011;1319;52.346;13.096;2023-02-02T07:01:42;15.37;;;3.50;;
2618;SDS011;1319;52.346;13.096;2023-02-02T07:04:07;15.87;;;2.50;;
2618;SDS011;1319;52.346;13.096;2023-02-02T07:06:32;15.57;;;2.23;;
2618;SDS011;1319;52.346;13.096;2023-02-02T07:08:58;12.57;;;2.60;;
2618;SDS011;1319;52.346;13.096;2023-02-02T07:11:24;10.67;;;2.53;;
2618;SDS011;1319;52.346;13.096;2023-02-02T07:13:49;12.87;;;2.00;;
2618;SDS011;1319;52.346;13.096;2023-02-02T07:16:15;24.87;;;2.80;;
2618;SDS011;1319;52.346;13.096;2023-02-02T07:18:40;14.27;;;2.57;;
2618;SDS011;1319;52.346;13.096;2023-02-02T07:21:19;13.53;;;2.73;;
2618;SDS011;1319;52.346;13.096;2023-02-02T07:23:45;12.27;;;2.07;;
2618;SDS011;1319;52.346;13.096;2023-02-02T07:26:10;12.27;;;2.00;;
2618;SDS011;1319;52.346;13.096;2023-02-02T07:28:36;11.43;;;2.40;;
2618;SDS011;1319;52.346;13.096;2023-02-02T07:33:56;9.23;;;2.00;;
2618;SDS011;1319;52.346;13.096;2023-02-02T07:36:22;13.53;;;2.17;;
2618;SDS011;1319;52.346;13.096;2023-02-02T07:38:49;5.67;;;2.17;;
2618;SDS011;1319;52.346;13.096;2023-02-02T07:41:14;15.47;;;2.17;;
2618;SDS011;1319;52.346;13.096;2023-02-02T07:43:40;12.10;;;2.73;;
2618;SDS011;1319;52.346;13.096;2023-02-02T07:46:06;16.57;;;1.87;;
2618;SDS011;1319;52.346;13.096;2023-02-02T07:48:34;9.67;;;1.67;;
2618;SDS011;1319;52.346;13.096;2023-02-02T07:51:02;8.27;;;2.07;;
2618;SDS011;1319;52.346;13.096;2023-02-02T07:53:27;10.93;;;2.10;;
2618;SDS011;1319;52.346;13.096;2023-02-02T07:55:53;11.47;;;2.23;;
2618;SDS011;1319;52.346;13.096;2023-02-02T07:58:18;8.23;;;1.70;;
2618;SDS011;1319;52.346;13.096;2023-02-02T08:00:43;12.63;;;1.70;;
2618;SDS011;1319;52.346;13.096;2023-02-02T08:03:12;7.23;;;1.70;;
2618;SDS011;1319;52.346;13.096;2023-02-02T08:05:37;10.33;;;1.90;;
2618;SDS011;1319;52.346;13.096;2023-02-02T08:08:02;10.50;;;2.00;;
2618;SDS011;1319;52.346;13.096;2023-02-02T08:10:27;9.43;;;1.80;;
2618;SDS011;1319;52.346;13.096;2023-02-02T08:12:53;10.17;;;1.80;;
2618;SDS011;1319;52.346;13.096;2023-02-02T08:15:18;9.23;;;1.60;;
2618;SDS011;1319;52.346;13.096;2023-02-02T08:17:44;15.13;;;1.60;;
2618;SDS011;1319;52.346;13.096;2023-02-02T08:20:10;12.80;;;1.77;;
2618;SDS011;1319;52.346;13.096;2023-02-02T08:22:36;2.20;;;1.20;;
2618;SDS011;1319;52.346;13.096;2023-02-02T08:25:03;9.93;;;2.10;;
2618;SDS011;1319;52.346;13.096;2023-02-02T08:27:28;4.73;;;1.33;;
2618;SDS011;1319;52.346;13.096;2023-02-02T08:29:53;9.77;;;1.57;;
2618;SDS011;1319;52.346;13.096;2023-02-02T08:32:19;6.83;;;1.80;;
2618;SDS011;1319;52.346;13.096;2023-02-02T08:34:46;8.67;;;1.77;;
2618;SDS011;1319;52.346;13.096;2023-02-02T08:37:11;2.13;;;1.23;;
2618;SDS011;1319;52.346;13.096;2023-02-02T08:39:37;5.97;;;1.40;;
2618;SDS011;1319;52.346;13.096;2023-02-02T08:42:02;4.83;;;1.30;;
2618;SDS011;1319;52.346;13.096;2023-02-02T08:44:27;5.03;;;1.53;;
2618;SDS011;1319;52.346;13.096;2023-02-02T08:46:52;8.27;;;1.67;;
2618;SDS011;1319;52.346;13.096;2023-02-02T08:49:18;6.70;;;1.60;;
2618;SDS011;1319;52.346;13.096;2023-02-02T08:51:43;2.00;;;1.40;;
2618;SDS011;1319;52.346;13.096;2023-02-02T08:54:08;7.23;;;1.77;;
2618;SDS011;1319;52.346;13.096;2023-02-02T08:56:33;6.00;;;1.50;;
2618;SDS011;1319;52.346;13.096;2023-02-02T08:58:59;4.53;;;1.23;;
2618;SDS011;1319;52.346;13.096;2023-02-02T09:01:25;10.47;;;2.13;;
2618;SDS011;1319;52.346;13.096;2023-02-02T09:03:54;6.27;;;1.47;;
2618;SDS011;1319;52.346;13.096;2023-02-02T09:06:19;4.57;;;1.53;;
2618;SDS011;1319;52.346;13.096;2023-02-02T09:08:45;4.50;;;1.47;;
2618;SDS011;1319;52.346;13.096;2023-02-02T09:11:12;12.27;;;2.47;;
2618;SDS011;1319;52.346;13.096;2023-02-02T09:13:38;10.00;;;1.60;;
2618;SDS011;1319;52.346;13.096;2023-02-02T09:16:04;11.43;;;2.10;;
2618;SDS011;1319;52.346;13.096;2023-02-02T09:18:30;5.93;;;2.03;;
2618;SDS011;1319;52.346;13.096;2023-02-02T09:20:58;7.27;;;2.00;;
2618;SDS011;1319;52.346;13.096;2023-02-02T09:23:23;6.93;;;1.90;;
2618;SDS011;1319;52.346;13.096;2023-02-02T09:25:49;4.23;;;1.60;;
2618;SDS011;1319;52.346;13.096;2023-02-02T09:28:15;8.03;;;2.20;;
2618;SDS011;1319;52.346;13.096;2023-02-02T09:30:40;15.57;;;2.13;;
2618;SDS011;1319;52.346;13.096;2023-02-02T09:33:05;7.93;;;2.13;;
2618;SDS011;1319;52.346;13.096;2023-02-02T09:35:30;11.40;;;2.17;;
2618;SDS011;1319;52.346;13.096;2023-02-02T09:37:55;6.27;;;2.00;;
2618;SDS011;1319;52.346;13.096;2023-02-02T09:40:21;8.37;;;2.60;;
2618;SDS011;1319;52.346;13.096;2023-02-02T09:43:00;7.27;;;1.70;;
2618;SDS011;1319;52.346;13.096;2023-02-02T09:45:31;8.90;;;1.73;;
2618;SDS011;1319;52.346;13.096;2023-02-02T10:00:47;8.63;;;2.27;;
2618;SDS011;1319;52.346;13.096;2023-02-02T10:03:19;7.17;;;1.90;;
2618;SDS011;1319;52.346;13.096;2023-02-02T10:08:12;7.73;;;1.50;;
2618;SDS011;1319;52.346;13.096;2023-02-02T10:10:40;8.83;;;2.10;;
2618;SDS011;1319;52.346;13.096;2023-02-02T10:18:31;6.33;;;1.70;;
2618;SDS011;1319;52.346;13.096;2023-02-02T10:21:01;5.97;;;1.40;;
2618;SDS011;1319;52.346;13.096;2023-02-02T10:23:31;4.13;;;1.37;;
2618;SDS011;1319;52.346;13.096;2023-02-02T10:26:03;2.97;;;1.40;;
2618;SDS011;1319;52.346;13.096;2023-02-02T10:28:40;5.43;;;1.07;;
2618;SDS011;1319;52.346;13.096;2023-02-02T10:31:07;5.27;;;1.13;;
2618;SDS011;1319;52.346;13.096;2023-02-02T10:33:38;6.50;;;2.07;;
2618;SDS011;1319;52.346;13.096;2023-02-02T10:36:46;6.43;;;1.40;;
2618;SDS011;1319;52.346;13.096;2023-02-02T10:38:56;4.77;;;1.40;;
2618;SDS011;1319;52.346;13.096;2023-02-02T10:41:29;4.37;;;1.10;;
2618;SDS011;1319;52.346;13.096;2023-02-02T10:46:42;4.63;;;1.20;;
2618;SDS011;1319;52.346;13.096;2023-02-02T10:49:28;5.27;;;1.23;;
2618;SDS011;1319;52.346;13.096;2023-02-02T10:52:06;3.50;;;1.10;;
2618;SDS011;1319;52.346;13.096;2023-02-02T10:54:46;6.73;;;1.20;;
2618;SDS011;1319;52.346;13.096;2023-02-02T10:57:13;4.77;;;1.30;;
2618;SDS011;1319;52.346;13.096;2023-02-02T10:59:42;4.50;;;1.40;;
2618;SDS011;1319;52.346;13.096;2023-02-02T11:02:11;4.03;;;1.10;;
2618;SDS011;1319;52.346;13.096;2023-02-02T11:04:36;3.97;;;1.33;;
2618;SDS011;1319;52.346;13.096;2023-02-02T11:07:20;2.07;;;1.03;;
2618;SDS011;1319;52.346;13.096;2023-02-02T11:09:46;14.07;;;1.50;;
2618;SDS011;1319;52.346;13.096;2023-02-02T11:12:14;6.63;;;1.33;;
2618;SDS011;1319;52.346;13.096;2023-02-02T11:14:40;2.97;;;1.20;;
2618;SDS011;1319;52.346;13.096;2023-02-02T11:17:10;5.73;;;1.40;;
2618;SDS011;1319;52.346;13.096;2023-02-02T11:19:40;5.97;;;1.60;;
2618;SDS011;1319;52.346;13.096;2023-02-02T11:22:05;7.17;;;1.70;;
2618;SDS011;1319;52.346;13.096;2023-02-02T11:24:43;6.53;;;1.37;;
2618;SDS011;1319;52.346;13.096;2023-02-02T11:29:58;5.50;;;1.50;;
2618;SDS011;1319;52.346;13.096;2023-02-02T11:37:30;7.27;;;1.80;;
2618;SDS011;1319;52.346;13.096;2023-02-02T11:42:43;6.17;;;1.33;;
2618;SDS011;1319;52.346;13.096;2023-02-02T11:45:13;7.77;;;1.70;;
2618;SDS011;1319;52.346;13.096;2023-02-02T11:47:39;8.80;;;1.63;;
2618;SDS011;1319;52.346;13.096;2023-02-02T11:50:05;7.00;;;1.70;;
2618;SDS011;1319;52.346;13.096;2023-02-02T11:52:31;6.73;;;1.40;;
2618;SDS011;1319;52.346;13.096;2023-02-02T11:54:57;4.53;;;1.23;;
2618;SDS011;1319;52.346;13.096;2023-02-02T11:57:24;4.83;;;1.30;;
2618;SDS011;1319;52.346;13.096;2023-02-02T11:59:50;3.17;;;1.40;;
2618;SDS011;1319;52.346;13.096;2023-02-02T12:04:44;3.37;;;1.20;;
2618;SDS011;1319;52.346;13.096;2023-02-02T12:07:30;8.47;;;1.67;;
2618;SDS011;1319;52.346;13.096;2023-02-02T12:10:00;7.13;;;1.33;;
2618;SDS011;1319;52.346;13.096;2023-02-02T12:17:38;4.67;;;1.33;;
2618;SDS011;1319;52.346;13.096;2023-02-02T12:27:46;5.77;;;1.50;;
2618;SDS011;1319;52.346;13.096;2023-02-02T12:30:16;5.40;;;1.60;;
2618;SDS011;1319;52.346;13.096;2023-02-02T12:35:42;8.87;;;1.57;;
2618;SDS011;1319;52.346;13.096;2023-02-02T12:40:45;4.77;;;1.00;;
2618;SDS011;1319;52.346;13.096;2023-02-02T12:50:55;5.63;;;1.10;;
2618;SDS011;1319;52.346;13.096;2023-02-02T12:58:45;3.73;;;1.80;;
2618;SDS011;1319;52.346;13.096;2023-02-02T13:06:26;6.73;;;1.70;;
2618;SDS011;1319;52.346;13.096;2023-02-02T13:09:00;4.13;;;1.50;;
2618;SDS011;1319;52.346;13.096;2023-02-02T13:11:31;5.97;;;1.87;;
2618;SDS011;1319;52.346;13.096;2023-02-02T13:14:02;4.57;;;1.50;;
2618;SDS011;1319;52.346;13.096;2023-02-02T13:16:29;6.63;;;1.70;;
2618;SDS011;1319;52.346;13.096;2023-02-02T13:19:00;4.83;;;1.20;;
2618;SDS011;1319;52.346;13.096;2023-02-02T13:21:26;6.77;;;1.70;;
2618;SDS011;1319;52.346;13.096;2023-02-02T13:23:54;5.33;;;1.43;;
2618;SDS011;1319;52.346;13.096;2023-02-02T13:26:24;3.40;;;1.20;;
2618;SDS011;1319;52.346;13.096;2023-02-02T13:29:00;4.17;;;1.47;;
2618;SDS011;1319;52.346;13.096;2023-02-02T13:33:59;6.23;;;1.63;;
2618;SDS011;1319;52.346;13.096;2023-02-02T13:36:27;5.20;;;1.40;;
2618;SDS011;1319;52.346;13.096;2023-02-02T13:38:55;5.40;;;1.40;;
2618;SDS011;1319;52.346;13.096;2023-02-02T13:41:20;5.23;;;1.37;;
2618;SDS011;1319;52.346;13.096;2023-02-02T13:43:53;7.17;;;1.80;;
2618;SDS011;1319;52.346;13.096;2023-02-02T13:46:26;8.83;;;1.70;;
2618;SDS011;1319;52.346;13.096;2023-02-02T13:48:56;4.73;;;1.47;;
2618;SDS011;1319;52.346;13.096;2023-02-02T14:02:01;6.77;;;1.43;;
2618;SDS011;1319;52.346;13.096;2023-02-02T14:04:28;6.40;;;1.70;;
2618;SDS011;1319;52.346;13.096;2023-02-02T14:07:01;4.53;;;1.40;;
2618;SDS011;1319;52.346;13.096;2023-02-02T14:09:29;6.70;;;1.60;;
2618;SDS011;1319;52.346;13.096;2023-02-02T14:12:00;8.67;;;1.70;;
2618;SDS011;1319;52.346;13.096;2023-02-02T14:14:26;5.03;;;1.10;;
2618;SDS011;1319;52.346;13.096;2023-02-02T14:17:05;7.97;;;1.60;;
2618;SDS011;1319;52.346;13.096;2023-02-02T14:22:03;8.83;;;1.40;;
2618;SDS011;1319;52.346;13.096;2023-02-02T14:27:01;2.97;;;1.40;;
2618;SDS011;1319;52.346;13.096;2023-02-02T14:34:38;4.97;;;1.30;;
2618;SDS011;1319;52.346;13.096;2023-02-02T14:39:29;3.93;;;1.77;;
2618;SDS011;1319;52.346;13.096;2023-02-02T14:42:04;6.17;;;1.37;;
2618;SDS011;1319;52.346;13.096;2023-02-02T14:50:13;5.37;;;1.10;;
2618;SDS011;1319;52.346;13.096;2023-02-02T14:52:39;6.57;;;1.53;;
2618;SDS011;1319;52.346;13.096;2023-02-02T14:55:05;6.83;;;1.70;;
2618;SDS011;1319;52.346;13.096;2023-02-02T14:57:30;3.20;;;1.30;;
2618;SDS011;1319;52.346;13.096;2023-02-02T14:59:58;6.20;;;1.30;;
2618;SDS011;1319;52.346;13.096;2023-02-02T15:02:29;5.80;;;1.30;;
2618;SDS011;1319;52.346;13.096;2023-02-02T15:07:50;5.27;;;1.50;;
2618;SDS011;1319;52.346;13.096;2023-02-02T15:10:20;5.47;;;1.27;;
2618;SDS011;1319;52.346;13.096;2023-02-02T15:13:05;5.47;;;1.40;;
2618;SDS011;1319;52.346;13.096;2023-02-02T15:15:31;5.03;;;1.50;;
2618;SDS011;1319;52.346;13.096;2023-02-02T15:20:38;4.50;;;1.53;;
2618;SDS011;1319;52.346;13.096;2023-02-02T15:28:39;7.00;;;1.50;;
2618;SDS011;1319;52.346;13.096;2023-02-02T15:33:42;4.87;;;1.50;;
2618;SDS011;1319;52.346;13.096;2023-02-02T15:36:12;7.17;;;1.50;;
2618;SDS011;1319;52.346;13.096;2023-02-02T15:38:39;6.57;;;1.70;;
2618;SDS011;1319;52.346;13.096;2023-02-02T15:41:21;5.50;;;1.60;;
2618;SDS011;1319;52.346;13.096;2023-02-02T15:43:48;5.40;;;1.67;;
2618;SDS011;1319;52.346;13.096;2023-02-02T15:46:15;7.33;;;1.80;;
2618;SDS011;1319;52.346;13.096;2023-02-02T15:48:48;7.13;;;1.60;;
2618;SDS011;1319;52.346;13.096;2023-02-02T15:51:33;6.80;;;1.77;;
2618;SDS011;1319;52.346;13.096;2023-02-02T15:53:58;8.37;;;1.73;;
2618;SDS011;1319;52.346;13.096;2023-02-02T15:58:52;7.93;;;1.57;;
2618;SDS011;1319;52.346;13.096;2023-02-02T16:01:19;6.80;;;1.80;;
2618;SDS011;1319;52.346;13.096;2023-02-02T16:06:10;5.27;;;1.70;;
2618;SDS011;1319;52.346;13.096;2023-02-02T16:08:36;8.60;;;1.93;;
2618;SDS011;1319;52.346;13.096;2023-02-02T16:13:34;5.00;;;1.53;;
2618;SDS011;1319;52.346;13.096;2023-02-02T16:16:03;5.77;;;1.53;;
2618;SDS011;1319;52.346;13.096;2023-02-02T16:18:31;7.83;;;2.03;;
2618;SDS011;1319;52.346;13.096;2023-02-02T16:20:57;7.57;;;1.50;;
2618;SDS011;1319;52.346;13.096;2023-02-02T16:23:28;5.50;;;1.83;;
2618;SDS011;1319;52.346;13.096;2023-02-02T16:25:54;4.40;;;1.60;;
2618;SDS011;1319;52.346;13.096;2023-02-02T16:28:22;5.93;;;1.50;;
2618;SDS011;1319;52.346;13.096;2023-02-02T16:30:47;3.40;;;1.37;;
2618;SDS011;1319;52.346;13.096;2023-02-02T16:33:25;8.70;;;1.70;;
2618;SDS011;1319;52.346;13.096;2023-02-02T16:35:50;3.33;;;1.50;;
2618;SDS011;1319;52.346;13.096;2023-02-02T16:40:47;6.97;;;2.20;;
2618;SDS011;1319;52.346;13.096;2023-02-02T16:50:42;2.77;;;1.40;;
2618;SDS011;1319;52.346;13.096;2023-02-02T16:53:09;7.30;;;1.60;;
2618;SDS011;1319;52.346;13.096;2023-02-02T16:55:44;4.30;;;1.50;;
2618;SDS011;1319;52.346;13.096;2023-02-02T16:58:14;4.87;;;1.70;;
2618;SDS011;1319;52.346;13.096;2023-02-02T17:00:39;3.50;;;1.43;;
2618;SDS011;1319;52.346;13.096;2023-02-02T17:03:14;8.83;;;1.50;;
2618;SDS011;1319;52.346;13.096;2023-02-02T17:05:45;7.93;;;1.70;;
2618;SDS011;1319;52.346;13.096;2023-02-02T17:08:11;5.13;;;1.67;;
2618;SDS011;1319;52.346;13.096;2023-02-02T17:10:40;4.80;;;1.50;;
2618;SDS011;1319;52.346;13.096;2023-02-02T17:16:01;3.77;;;1.50;;
2618;SDS011;1319;52.346;13.096;2023-02-02T17:18:26;5.67;;;1.70;;
2618;SDS011;1319;52.346;13.096;2023-02-02T17:20:52;6.07;;;1.67;;
2618;SDS011;1319;52.346;13.096;2023-02-02T17:23:21;4.23;;;1.70;;
2618;SDS011;1319;52.346;13.096;2023-02-02T17:25:47;7.73;;;1.83;;
2618;SDS011;1319;52.346;13.096;2023-02-02T17:28:23;15.10;;;1.77;;
2618;SDS011;1319;52.346;13.096;2023-02-02T17:30:50;3.17;;;1.60;;
2618;SDS011;1319;52.346;13.096;2023-02-02T17:33:17;2.07;;;1.40;;
2618;SDS011;1319;52.346;13.096;2023-02-02T17:35:43;6.47;;;1.60;;
2618;SDS011;1319;52.346;13.096;2023-02-02T17:38:09;3.83;;;1.50;;
2618;SDS011;1319;52.346;13.096;2023-02-02T17:40:34;5.03;;;1.73;;
2618;SDS011;1319;52.346;13.096;2023-02-02T17:42:59;5.43;;;1.70;;
2618;SDS011;1319;52.346;13.096;2023-02-02T17:45:30;9.17;;;1.70;;